Palm Beach, FL (33480)

5:27 PM EDT on October 23, 2014 (GMT -0400)
Palm Beach, FL | Change Station
CLOSE
Current Station
Personal Weather Station
Location: Palm Beach, FL
Elevation: 8 ft
Nearby Weather Stations
Active Advisory: Coastal Hazard Statement

Elev 8 ft 26.71 °N, 80.04 °W | Updated 13 seconds ago

Overcast
Overcast
77.9 °F
Feels Like 80 °F
N
6.9
Wind Variable Wind from NNE
Gusts 8.0 mph

Today
High -- | Low -- °F
--% Chance of Precip.
Yesterday
High -- | Low -- °F
Precip. -- in
7:24 AM 6:44 PM
Waning Crescent, 0% visible
Pressure 29.89 in
Visibility 10.0 miles
Clouds Overcast 3800 ft
Heat Index 80 °F
Dew Point 68 °F
Humidity 71%
Rainfall 0.21 in
Snow Depth Not available.
UV 1 out of 12
Pollen 3.80 out of 12
Ozone Good
PM2.5 Good
Flu Activity Local Activity
METAR KPBI 232053Z 04012KT 10SM OVC038 26/18 A2989 RMK AO2 SLP121 T02560183 56008

More Conditions Fewer Conditions

Pressure 29.89 in
Visibility 10.0 miles
Clouds Overcast 3800 ft
Heat Index 80 °F
Dew Point 68 °F
Humidity 71%
Rainfall 0.21 in
Snow Depth Not available.
UV 1 out of 12
Pollen 3.80 out of 12
Ozone Good
PM2.5 Good
Flu Activity Local Activity
METAR KPBI 232053Z 04012KT 10SM OVC038 26/18 A2989 RMK AO2 SLP121 T02560183 56008

More Conditions Fewer Conditions

Nowcast | as of 1:53 PM EDT on October 23, 2014

Bands of moderate to heavy showers across the Atlantic waters continue to slowly stream to the west and should make it into the East Coast Metro areas through the evening. Isolated heavy rainfall possibly leading to localized urban flooding will be the main threat.

×

10-Day Weather Forecast

Almanac

Astronomy

Oct. 23, 2014 Rise Set
Actual Time 7:24 AM EDT 6:44 PM EDT
Civil Twilight 7:00 AM EDT 7:08 PM EDT
Nautical Twilight 6:33 AM EDT 7:35 PM EDT
Astronomical Twilight 6:06 AM EDT 8:02 PM EDT
Moon 7:04 AM EDT 6:45 PM EDT
Length of Visible Light 12h 07m
Length of Day
11h 20m
Tomorrow will be 1m 27s shorter.
Waning Crescent, 0% of the Moon is Illuminated
Today
Waning Crescent
Oct 23
New
Oct 30
First Quarter
Nov 6
Full
Nov 14
Last Quarter

Today's Extremes

State Highs State Lows

Community

WunderPhotos

Upload Photos

1,764,374 photos uploaded!

WunderBlogs® & News

Nearby

Air Quality

  Air Quality AQ Index Pollutant
Yesterday Good
OZONE
Yesterday Good
PM2.5
Current Good
OZONE
Current Good
PM2.5
Thursday Good
OZONE
Thursday Good
PM2.5
Friday Good
OZONE
Friday Good
PM2.5
Saturday Good
OZONE
Saturday Good
PM2.5

Snow Depth

Station Depth Elevation
No new snow has been reported.

Earthquake Activity

City Distance Mag. Time & Date
No recent earthquake activity has been reported nearby.
Minimum magnitude displayed is 2.5.

Coastal Water Temperatures

Place Temperature
Lake Worth, FL 81.0 °F
Virginia Key, FL 81.0 °F

Nearby Weather Stations